Time;durP1;ratioP1;P1;durP2;ratioP2;P2;SDS_P1;SDS_P2;PMS_P1;PMS_P2;Temp;Humidity;BMP_temperature;BMP_pressure;BME280_temperature;BME280_humidity;BME280_pressure;Samples;Min_cycle;Max_cycle;Signal;HPM_P1;HPM_P2
2022/08/08 00:00:04;;;;;;;3.83;3.42;;;21.50;99.90;;;;;;1037710;28;20029;-59
2022/08/08 00:00:42;;;;;;;4.80;3.95;;;21.50;99.90;;;;;;1041917;28;20017;-61
2022/08/08 00:01:39;;;;;;;5.22;3.35;;;21.50;99.90;;;;;;1043083;28;20029;-60
2022/08/08 00:02:16;;;;;;;;;;;21.50;99.90;;;;;;1039304;28;20033;-60
2022/08/08 00:02:58;;;;;;;5.35;3.20;;;21.50;99.90;;;;;;1038726;28;19909;-60
2022/08/08 00:04:13;;;;;;;4.35;3.35;;;21.50;99.90;;;;;;1038811;28;20076;-60
2022/08/08 00:04:50;;;;;;;4.43;3.60;;;21.50;99.90;;;;;;1038711;28;20034;-60
2022/08/08 00:05:28;;;;;;;4.13;3.28;;;21.50;99.90;;;;;;1038713;28;20017;-60
2022/08/08 00:06:06;;;;;;;;;;;21.50;99.90;;;;;;1039102;28;20506;-60
2022/08/08 00:06:56;;;;;;;5.18;4.07;;;21.50;99.90;;;;;;1038432;28;20491;-61
2022/08/08 00:07:56;;;;;;;4.30;3.17;;;21.50;99.90;;;;;;1039165;28;20144;-61
2022/08/08 00:08:37;;;;;;;4.18;3.50;;;21.50;99.90;;;;;;1038789;28;20104;-60
2022/08/08 00:09:27;;;;;;;4.05;3.65;;;21.40;99.90;;;;;;1038568;28;20017;-61
2022/08/08 00:10:34;;;;;;;5.18;3.80;;;21.40;99.90;;;;;;1038437;28;20045;-60
2022/08/08 00:11:26;;;;;;;3.83;3.50;;;21.40;99.90;;;;;;1036814;28;20491;-61
2022/08/08 00:12:01;;;;;;;5.75;4.13;;;21.40;99.90;;;;;;1038457;28;20021;-66
2022/08/08 00:12:43;;;;;;;4.32;3.63;;;21.40;99.90;;;;;;1038764;28;20017;-61
2022/08/08 00:13:32;;;;;;;3.45;3.15;;;21.40;99.90;;;;;;1038981;28;20107;-60
2022/08/08 00:14:07;;;;;;;6.32;3.17;;;21.50;99.90;;;;;;1038571;28;20116;-61
2022/08/08 00:14:58;;;;;;;3.50;3.20;;;21.50;99.90;;;;;;1042223;28;20027;-60
2022/08/08 00:15:37;;;;;;;5.00;3.78;;;21.50;99.90;;;;;;1040244;28;20024;-60
2022/08/08 00:16:12;;;;;;;4.80;3.15;;;21.50;99.90;;;;;;1038807;28;20684;-60
2022/08/08 00:16:51;;;;;;;4.28;3.45;;;21.40;99.90;;;;;;1038877;28;20573;-61
2022/08/08 00:17:56;;;;;;;3.88;2.85;;;21.40;99.90;;;;;;1042792;28;20013;-61
2022/08/08 00:18:42;;;;;;;3.90;3.30;;;21.40;99.90;;;;;;1043015;28;20113;-60
2022/08/08 00:19:42;;;;;;;3.88;3.30;;;21.40;99.90;;;;;;1038256;28;20018;-60
2022/08/08 00:20:16;;;;;;;4.25;3.67;;;21.40;99.90;;;;;;1036617;28;20049;-60
2022/08/08 00:20:58;;;;;;;4.03;3.60;;;21.40;99.90;;;;;;1038901;28;20546;-60
2022/08/08 00:21:35;;;;;;;3.33;2.80;;;21.40;99.90;;;;;;1038860;28;20021;-60
2022/08/08 00:22:14;;;;;;;5.35;3.67;;;21.40;99.90;;;;;;1038846;28;20047;-61
2022/08/08 00:22:49;;;;;;;4.20;3.28;;;21.40;99.90;;;;;;1038719;28;20104;-60
2022/08/08 00:23:42;;;;;;;4.50;3.22;;;21.40;99.90;;;;;;1038842;28;20026;-62
2022/08/08 00:24:17;;;;;;;5.85;3.38;;;21.40;99.90;;;;;;1038875;28;20487;-60
2022/08/08 00:24:59;;;;;;;5.05;3.50;;;21.40;99.90;;;;;;1038656;28;20049;-60
2022/08/08 00:25:35;;;;;;;3.88;3.35;;;21.40;99.90;;;;;;1038793;28;20396;-60
2022/08/08 00:26:09;;;;;;;4.63;3.38;;;21.40;99.90;;;;;;1040904;28;20053;-60
2022/08/08 00:26:44;;;;;;;4.45;3.30;;;21.40;99.90;;;;;;1042767;28;20473;-60
2022/08/08 00:27:18;;;;;;;3.40;3.10;;;21.40;99.90;;;;;;1041178;28;20025;-59
2022/08/08 00:27:52;;;;;;;4.72;3.42;;;21.40;99.90;;;;;;1038366;28;20389;-60
2022/08/08 00:28:45;;;;;;;5.20;3.40;;;21.30;99.90;;;;;;1039070;28;20040;-60
2022/08/08 00:29:35;;;;;;;4.13;3.20;;;21.30;99.90;;;;;;1040084;28;20042;-60
2022/08/08 00:30:08;;;;;;;5.00;3.38;;;21.30;99.90;;;;;;1038740;28;20033;-61
2022/08/08 00:30:50;;;;;;;4.25;3.00;;;21.30;99.90;;;;;;1038488;28;20725;-60
2022/08/08 00:31:28;;;;;;;3.95;3.25;;;21.30;99.90;;;;;;1038892;28;20018;-60
2022/08/08 00:32:12;;;;;;;4.63;3.42;;;21.30;99.90;;;;;;1038407;28;20018;-61
2022/08/08 00:32:59;;;;;;;4.70;3.08;;;21.30;99.90;;;;;;1038794;28;20017;-61
2022/08/08 00:33:31;;;;;;;;;;;21.30;99.90;;;;;;1038962;28;20024;-60
2022/08/08 00:35:43;;;;;;;2.90;2.60;;;21.30;99.90;;;;;;1036263;28;20684;-60
2022/08/08 00:36:29;;;;;;;3.50;3.15;;;21.30;99.90;;;;;;1038585;28;20071;-60
2022/08/08 00:37:09;;;;;;;5.40;3.35;;;21.30;99.90;;;;;;1038594;28;20018;-60
2022/08/08 00:38:07;;;;;;;4.03;3.20;;;21.30;99.90;;;;;;1038630;28;20035;-62
2022/08/08 00:38:56;;;;;;;3.92;2.97;;;21.30;99.90;;;;;;1038699;28;20018;-62
2022/08/08 00:39:39;;;;;;;4.53;3.38;;;21.30;99.90;;;;;;1038660;28;20695;-61
2022/08/08 00:40:13;;;;;;;4.47;3.22;;;21.30;99.90;;;;;;1038914;28;20009;-60
2022/08/08 00:41:17;;;;;;;3.20;2.85;;;21.20;99.90;;;;;;1038959;28;20076;-60
2022/08/08 00:42:08;;;;;;;3.90;3.22;;;21.20;99.90;;;;;;1038986;28;20107;-60
2022/08/08 00:43:03;;;;;;;3.95;2.70;;;21.20;99.90;;;;;;1038754;28;20043;-61
2022/08/08 00:44:08;;;;;;;4.95;3.30;;;21.20;99.90;;;;;;1038930;28;20044;-60
2022/08/08 00:45:01;;;;;;;3.90;3.40;;;21.20;99.90;;;;;;1038773;28;20026;-61
2022/08/08 00:46:01;;;;;;;3.83;3.45;;;21.20;99.90;;;;;;1038767;28;20033;-61
2022/08/08 00:46:38;;;;;;;3.60;3.30;;;21.20;99.90;;;;;;1038975;28;20108;-62
2022/08/08 00:47:36;;;;;;;5.70;3.33;;;21.20;99.90;;;;;;1038961;28;20079;-60
2022/08/08 00:48:25;;;;;;;4.35;3.33;;;21.20;99.90;;;;;;1038864;28;20491;-62
2022/08/08 00:49:22;;;;;;;3.80;3.40;;;21.20;99.90;;;;;;1038998;28;20029;-61
2022/08/08 00:50:10;;;;;;;3.95;3.30;;;21.20;99.90;;;;;;1038644;28;20420;-60
2022/08/08 00:51:00;;;;;;;3.40;2.97;;;21.20;99.90;;;;;;1038975;28;20041;-60
2022/08/08 00:51:48;;;;;;;3.92;2.88;;;21.20;99.90;;;;;;1039004;28;20036;-60
2022/08/08 00:52:56;;;;;;;4.35;3.42;;;21.20;99.90;;;;;;1039039;28;20388;-59
2022/08/08 00:53:58;;;;;;;6.65;3.22;;;21.20;99.90;;;;;;1040305;28;20036;-60
2022/08/08 00:55:05;;;;;;;5.78;3.35;;;21.20;99.90;;;;;;1043318;28;20104;-60
2022/08/08 00:55:55;;;;;;;4.00;3.25;;;21.10;99.90;;;;;;1039016;28;20025;-61
2022/08/08 00:56:37;;;;;;;3.30;2.90;;;21.10;99.90;;;;;;1039115;28;20022;-60
2022/08/08 00:57:25;;;;;;;3.97;3.17;;;21.10;99.90;;;;;;1042708;28;20021;-60
2022/08/08 00:58:25;;;;;;;3.65;3.05;;;21.10;99.90;;;;;;1042936;28;20071;-60
2022/08/08 00:58:58;;;;;;;4.10;3.00;;;21.10;99.90;;;;;;1042951;28;20024;-60
2022/08/08 01:00:06;;;;;;;5.72;3.15;;;21.10;99.90;;;;;;1043132;28;20446;-61
2022/08/08 01:01:16;;;;;;;4.60;3.28;;;21.10;99.90;;;;;;1040594;28;20017;-61
2022/08/08 01:02:17;;;;;;;4.45;3.25;;;21.10;99.90;;;;;;1042186;28;20035;-61
2022/08/08 01:03:10;;;;;;;3.88;3.33;;;21.10;99.90;;;;;;1042951;28;20078;-60
2022/08/08 01:03:55;;;;;;;4.30;3.60;;;21.10;99.90;;;;;;1042753;28;20121;-61
2022/08/08 01:05:05;;;;;;;4.75;3.50;;;21.10;99.90;;;;;;1043125;28;20024;-62
2022/08/08 01:06:04;;;;;;;4.53;3.33;;;21.10;99.90;;;;;;1042685;28;20124;-60
2022/08/08 01:07:19;;;;;;;4.43;3.10;;;21.10;99.90;;;;;;1042856;28;20427;-61
2022/08/08 01:08:15;;;;;;;4.90;3.15;;;21.10;99.90;;;;;;1037696;28;20037;-61
2022/08/08 01:09:39;;;;;;;4.40;3.35;;;21.10;99.90;;;;;;1038351;28;20071;-60
2022/08/08 01:10:30;;;;;;;3.50;3.20;;;21.00;99.90;;;;;;1034283;28;20021;-60
2022/08/08 01:11:36;;;;;;;4.45;3.38;;;21.00;99.90;;;;;;1036323;28;20344;-60
2022/08/08 01:12:24;;;;;;;4.10;3.17;;;21.00;99.90;;;;;;1014074;29;20032;-60
2022/08/08 01:13:16;;;;;;;4.20;3.10;;;21.00;99.90;;;;;;1032211;28;20782;-60
2022/08/08 01:13:47;;;;;;;4.85;2.95;;;21.00;99.90;;;;;;1039430;28;20021;-60
2022/08/08 01:14:51;;;;;;;3.00;2.70;;;21.00;99.90;;;;;;1042999;28;20020;-61
2022/08/08 01:15:31;;;;;;;3.80;2.97;;;21.00;99.90;;;;;;1042944;28;20447;-61
2022/08/08 01:16:16;;;;;;;3.28;2.97;;;21.00;99.90;;;;;;1042830;28;20013;-61
2022/08/08 01:16:53;;;;;;;5.65;3.30;;;21.00;99.90;;;;;;1042947;28;20029;-60
2022/08/08 01:18:18;;;;;;;4.63;3.38;;;21.00;99.90;;;;;;1043009;28;20151;-60
2022/08/08 01:19:13;;;;;;;4.53;3.63;;;21.00;99.90;;;;;;1032975;28;20068;-61
2022/08/08 01:20:01;;;;;;;3.80;2.92;;;21.00;99.90;;;;;;1034821;28;20105;-62
2022/08/08 01:20:40;;;;;;;3.67;2.83;;;21.00;99.90;;;;;;1039750;28;20024;-62
2022/08/08 01:21:29;;;;;;;3.67;2.78;;;21.00;99.90;;;;;;1043070;28;20023;-61
2022/08/08 01:22:28;;;;;;;5.10;3.10;;;20.90;99.90;;;;;;1043060;28;20036;-60
2022/08/08 01:23:14;;;;;;;4.25;2.90;;;21.00;99.90;;;;;;1042592;28;20108;-61
2022/08/08 01:24:04;;;;;;;4.57;3.00;;;20.90;99.90;;;;;;1043064;28;20025;-62
2022/08/08 01:24:59;;;;;;;4.40;3.35;;;20.90;99.90;;;;;;1039823;28;20025;-61
2022/08/08 01:25:45;;;;;;;3.40;3.10;;;20.90;99.90;;;;;;1039018;28;20015;-62
2022/08/08 01:26:40;;;;;;;3.10;2.80;;;20.90;99.90;;;;;;1040890;28;20120;-61
2022/08/08 01:27:55;;;;;;;2.63;2.42;;;20.90;99.90;;;;;;1042304;28;20013;-61
2022/08/08 01:28:51;;;;;;;3.88;3.25;;;20.90;99.90;;;;;;1043129;28;20053;-61
2022/08/08 01:30:07;;;;;;;4.20;2.83;;;20.90;99.90;;;;;;1043188;28;20101;-61
2022/08/08 01:31:14;;;;;;;3.50;3.05;;;20.90;99.90;;;;;;1038359;28;20529;-60
2022/08/08 01:32:16;;;;;;;4.53;3.03;;;20.90;99.90;;;;;;1038968;28;20025;-62
2022/08/08 01:33:13;;;;;;;4.93;3.10;;;20.90;99.90;;;;;;1039541;28;20108;-60
2022/08/08 01:33:57;;;;;;;4.43;3.15;;;20.90;99.90;;;;;;1040650;28;20097;-61
2022/08/08 01:35:05;;;;;;;3.72;3.10;;;20.90;99.90;;;;;;1044205;28;20036;-61
2022/08/08 01:36:01;;;;;;;4.00;3.20;;;20.90;99.90;;;;;;1043646;28;20008;-61
2022/08/08 01:37:10;;;;;;;3.85;2.60;;;20.90;99.90;;;;;;1044115;28;20020;-62
2022/08/08 01:38:11;;;;;;;3.13;2.80;;;20.90;99.90;;;;;;1043479;28;20041;-63
2022/08/08 01:39:06;;;;;;;5.32;3.05;;;20.90;99.90;;;;;;1043787;28;20488;-61
2022/08/08 01:39:52;;;;;;;5.38;3.20;;;20.90;99.90;;;;;;1039582;28;20022;-60
2022/08/08 01:40:59;;;;;;;4.78;3.33;;;20.80;99.90;;;;;;1039819;28;20101;-62
2022/08/08 01:41:30;;;;;;;3.83;3.13;;;20.80;99.90;;;;;;1039757;28;20105;-61
2022/08/08 01:42:21;;;;;;;3.10;2.83;;;20.80;99.90;;;;;;1039585;28;20024;-61
2022/08/08 01:43:30;;;;;;;3.45;3.03;;;20.80;99.90;;;;;;1039669;28;20473;-63
2022/08/08 01:44:28;;;;;;;4.55;3.17;;;20.80;99.90;;;;;;1039361;28;20076;-62
2022/08/08 01:45:10;;;;;;;4.13;2.60;;;20.80;99.90;;;;;;1039453;28;20025;-62
2022/08/08 01:45:49;;;;;;;3.55;3.10;;;20.80;99.90;;;;;;1040586;28;20020;-61
2022/08/08 01:46:39;;;;;;;3.40;3.10;;;20.80;99.90;;;;;;1043799;28;20431;-61
2022/08/08 01:47:46;;;;;;;2.58;2.38;;;20.80;99.90;;;;;;1043864;28;20016;-61
2022/08/08 01:48:41;;;;;;;3.92;3.10;;;20.80;99.90;;;;;;1042477;28;20440;-61
2022/08/08 01:49:43;;;;;;;3.90;2.80;;;20.80;99.90;;;;;;1043602;28;20028;-63
2022/08/08 01:50:16;;;;;;;3.85;2.70;;;20.80;99.90;;;;;;1043898;28;20083;-61
2022/08/08 01:51:05;;;;;;;3.00;2.60;;;20.80;99.90;;;;;;1043563;28;20025;-62
2022/08/08 01:51:44;;;;;;;4.88;2.97;;;20.80;99.90;;;;;;1043664;28;20480;-62
2022/08/08 01:52:45;;;;;;;3.67;2.90;;;20.80;99.90;;;;;;1043747;28;20028;-60
2022/08/08 01:53:33;;;;;;;3.08;2.78;;;20.70;99.90;;;;;;1043842;28;20020;-61
2022/08/08 01:54:41;;;;;;;4.45;2.97;;;20.70;99.90;;;;;;1043607;28;20021;-61
2022/08/08 01:55:27;;;;;;;3.10;2.42;;;20.70;99.90;;;;;;1043770;28;20020;-62
2022/08/08 01:56:27;;;;;;;3.13;2.83;;;20.70;99.90;;;;;;1043350;28;20029;-62
2022/08/08 01:57:16;;;;;;;3.85;2.90;;;20.70;99.90;;;;;;1041646;28;20021;-61
2022/08/08 01:57:55;;;;;;;3.17;2.60;;;20.70;99.90;;;;;;1043600;28;20655;-61
2022/08/08 01:58:39;;;;;;;3.53;2.85;;;20.70;99.90;;;;;;1043986;28;20777;-61
2022/08/08 01:59:32;;;;;;;4.30;2.85;;;20.70;99.90;;;;;;1043639;28;20029;-61
2022/08/08 02:00:22;;;;;;;3.58;3.10;;;20.70;99.90;;;;;;1039523;28;20072;-62
2022/08/08 02:01:08;;;;;;;3.60;2.70;;;20.70;99.90;;;;;;1039692;28;20025;-62
2022/08/08 02:02:00;;;;;;;3.67;2.88;;;20.70;99.90;;;;;;1039618;28;20040;-61
2022/08/08 02:02:54;;;;;;;4.40;2.92;;;20.70;99.90;;;;;;1039674;28;20025;-61
2022/08/08 02:03:46;;;;;;;3.25;2.90;;;20.70;99.90;;;;;;1034686;28;20029;-62
2022/08/08 02:04:46;;;;;;;3.88;2.80;;;20.70;99.90;;;;;;1039002;28;20401;-61
2022/08/08 02:05:17;;;;;;;4.60;2.97;;;20.70;99.90;;;;;;1039650;28;20026;-61
2022/08/08 02:06:15;;;;;;;4.17;2.80;;;20.70;99.90;;;;;;1039581;28;20649;-61
2022/08/08 02:06:58;;;;;;;3.67;2.90;;;20.70;99.90;;;;;;1039658;28;20045;-62
2022/08/08 02:08:15;;;;;;;3.60;2.97;;;20.70;99.90;;;;;;1039791;28;20021;-61
2022/08/08 02:09:00;;;;;;;3.40;2.97;;;20.60;99.90;;;;;;1039535;28;20021;-62
2022/08/08 02:09:46;;;;;;;3.50;3.20;;;20.60;99.90;;;;;;1040627;28;20522;-61
2022/08/08 02:10:54;;;;;;;4.22;3.13;;;20.60;99.90;;;;;;1043768;28;20025;-61
2022/08/08 02:11:43;;;;;;;2.83;2.53;;;20.60;99.90;;;;;;1043731;28;20040;-63
2022/08/08 02:12:22;;;;;;;3.35;3.00;;;20.60;99.90;;;;;;1039617;28;20017;-62
2022/08/08 02:13:05;;;;;;;3.38;3.08;;;20.60;99.90;;;;;;1039886;28;20103;-61
2022/08/08 02:13:54;;;;;;;3.58;2.90;;;20.60;99.90;;;;;;1043918;28;20013;-62
2022/08/08 02:14:32;;;;;;;4.75;2.90;;;20.60;99.90;;;;;;1043339;28;20540;-61
2022/08/08 02:15:20;;;;;;;3.75;3.00;;;20.60;99.90;;;;;;1039115;28;20045;-62
2022/08/08 02:16:04;;;;;;;;;;;20.60;99.90;;;;;;1039609;28;20026;-61
2022/08/08 02:16:41;;;;;;;4.15;3.38;;;20.60;99.90;;;;;;1042781;28;19909;-61
2022/08/08 02:17:19;;;;;;;3.72;3.10;;;20.60;99.90;;;;;;1043513;28;20025;-63
2022/08/08 02:17:55;;;;;;;3.47;2.78;;;20.60;99.90;;;;;;1043749;28;20806;-61
2022/08/08 02:18:48;;;;;;;3.30;3.00;;;20.60;99.90;;;;;;1043745;28;20742;-61
2022/08/08 02:19:27;;;;;;;3.33;3.00;;;20.60;99.90;;;;;;1043640;28;20064;-61
2022/08/08 02:20:10;;;;;;;3.85;3.10;;;20.60;99.90;;;;;;1043313;28;20047;-62
2022/08/08 02:23:24;;;;;;;3.03;2.72;;;20.60;99.90;;;;;;1043556;28;20036;-62
2022/08/08 02:24:06;;;;;;;3.50;2.80;;;20.60;99.90;;;;;;1043517;28;20017;-62
2022/08/08 02:25:16;;;;;;;3.15;2.85;;;20.60;99.90;;;;;;1043650;28;20013;-61
2022/08/08 02:26:08;;;;;;;3.47;3.10;;;20.60;99.90;;;;;;1039651;28;20014;-62
2022/08/08 02:26:53;;;;;;;4.32;3.20;;;20.50;99.90;;;;;;1041317;28;20093;-62
2022/08/08 02:27:33;;;;;;;3.83;2.97;;;20.60;99.90;;;;;;1039807;28;20018;-61
2022/08/08 02:28:09;;;;;;;4.35;3.08;;;20.50;99.90;;;;;;1039459;28;20009;-61
2022/08/08 02:28:58;;;;;;;4.18;2.75;;;20.50;99.90;;;;;;1039304;28;20012;-61
2022/08/08 02:29:57;;;;;;;3.22;2.92;;;20.50;99.90;;;;;;1039716;28;20018;-61
2022/08/08 02:30:59;;;;;;;4.05;3.08;;;20.50;99.90;;;;;;1039489;28;20069;-61
2022/08/08 02:31:41;;;;;;;4.78;3.03;;;20.50;99.90;;;;;;1039707;28;20021;-61
2022/08/08 02:32:38;;;;;;;3.67;3.08;;;20.50;99.90;;;;;;1039451;28;20089;-61
2022/08/08 02:33:30;;;;;;;4.40;3.17;;;20.50;99.90;;;;;;1039504;28;20060;-61
2022/08/08 02:34:32;;;;;;;3.45;2.67;;;20.50;99.90;;;;;;1039196;28;20381;-63
2022/08/08 02:35:33;;;;;;;4.60;2.92;;;20.50;99.90;;;;;;1039303;28;20366;-62
2022/08/08 02:36:38;;;;;;;3.83;2.80;;;20.50;99.90;;;;;;1043006;28;20045;-61
2022/08/08 02:37:45;;;;;;;3.78;2.67;;;20.50;99.90;;;;;;1043120;28;20387;-61
2022/08/08 02:38:54;;;;;;;4.35;3.00;;;20.50;99.90;;;;;;1043518;28;20104;-60
2022/08/08 02:39:27;;;;;;;5.03;3.47;;;20.50;99.90;;;;;;1042756;28;20198;-61
2022/08/08 02:40:25;;;;;;;2.80;2.50;;;20.50;99.90;;;;;;1039297;28;20492;-62
2022/08/08 02:41:14;;;;;;;3.38;3.08;;;20.50;99.90;;;;;;1039380;28;20061;-60
2022/08/08 02:42:05;;;;;;;3.22;2.70;;;20.50;99.90;;;;;;1039576;28;20109;-60
2022/08/08 02:43:27;;;;;;;4.57;2.90;;;20.50;99.90;;;;;;1041464;28;20022;-60
2022/08/08 02:44:31;;;;;;;3.53;2.80;;;20.50;99.90;;;;;;1043228;28;20028;-60
2022/08/08 02:45:21;;;;;;;4.75;3.00;;;20.40;99.90;;;;;;1043563;28;20057;-60
2022/08/08 02:45:57;;;;;;;2.95;2.65;;;20.40;99.90;;;;;;1043088;28;20025;-61
2022/08/08 02:46:57;;;;;;;3.95;2.90;;;20.40;99.90;;;;;;1043350;28;20059;-60
2022/08/08 02:48:09;;;;;;;3.72;3.20;;;20.40;99.90;;;;;;1039829;28;20380;-60
2022/08/08 02:49:07;;;;;;;3.53;2.90;;;20.40;99.90;;;;;;1038485;28;20366;-60
2022/08/08 02:50:20;;;;;;;3.10;2.75;;;20.40;99.90;;;;;;1039426;28;20036;-60
2022/08/08 02:51:21;;;;;;;3.70;3.05;;;20.40;99.90;;;;;;1039344;28;20025;-62
2022/08/08 02:52:28;;;;;;;5.63;3.58;;;20.40;99.90;;;;;;1039398;28;20100;-61
2022/08/08 02:53:36;;;;;;;3.38;2.67;;;20.40;99.90;;;;;;1039455;28;20017;-60
2022/08/08 02:54:54;;;;;;;4.07;3.10;;;20.40;99.90;;;;;;1043376;28;20518;-60
2022/08/08 02:56:02;;;;;;;4.75;3.03;;;20.40;99.90;;;;;;1038975;28;20151;-61
2022/08/08 02:57:07;;;;;;;5.35;3.03;;;20.40;99.90;;;;;;1039166;28;20029;-62
2022/08/08 02:57:49;;;;;;;3.10;2.80;;;20.30;99.90;;;;;;1042571;28;20044;-60
2022/08/08 02:58:44;;;;;;;4.70;3.08;;;20.40;99.90;;;;;;1038877;28;20022;-61
2022/08/08 03:00:08;;;;;;;4.15;2.92;;;20.30;99.90;;;;;;1042227;28;20100;-60
2022/08/08 03:00:57;;;;;;;5.63;2.67;;;20.30;99.90;;;;;;1037115;28;20529;-60
2022/08/08 03:01:52;;;;;;;3.40;2.72;;;20.30;99.90;;;;;;1039315;28;20037;-60
2022/08/08 03:02:58;;;;;;;4.32;3.15;;;20.30;99.90;;;;;;1040219;28;20029;-61
2022/08/08 03:04:06;;;;;;;3.15;2.80;;;20.30;99.90;;;;;;1043500;28;20064;-60
2022/08/08 03:04:58;;;;;;;5.35;2.55;;;20.30;99.90;;;;;;1043580;28;20025;-61
2022/08/08 03:05:40;;;;;;;3.47;2.70;;;20.30;99.90;;;;;;1043594;28;20017;-61
2022/08/08 03:06:58;;;;;;;3.78;3.10;;;20.30;99.90;;;;;;1043373;28;20021;-62
2022/08/08 03:08:06;;;;;;;3.25;2.95;;;20.30;99.90;;;;;;1043466;28;20040;-61
2022/08/08 03:08:45;;;;;;;3.35;2.30;;;20.30;99.90;;;;;;1043405;28;20536;-62
2022/08/08 03:09:34;;;;;;;4.43;3.00;;;20.30;99.90;;;;;;1043313;28;20368;-60
2022/08/08 03:10:23;;;;;;;4.40;2.47;;;20.30;99.90;;;;;;1043573;28;20075;-60
2022/08/08 03:11:49;;;;;;;4.25;3.13;;;20.30;99.90;;;;;;1043146;28;20017;-60
2022/08/08 03:12:39;;;;;;;4.05;2.90;;;20.30;99.90;;;;;;1043468;28;20017;-62
2022/08/08 03:13:25;;;;;;;4.50;2.53;;;20.30;99.90;;;;;;1043050;28;20040;-61
2022/08/08 03:14:16;;;;;;;3.58;2.95;;;20.20;99.90;;;;;;1042810;28;20037;-60
2022/08/08 03:15:24;;;;;;;4.35;2.80;;;20.20;99.90;;;;;;1043262;28;20025;-61
2022/08/08 03:16:05;;;;;;;5.18;3.17;;;20.20;99.90;;;;;;1043186;28;20082;-60
2022/08/08 03:16:49;;;;;;;3.63;2.78;;;20.20;99.90;;;;;;1043412;28;20447;-61
2022/08/08 03:18:02;;;;;;;4.07;2.78;;;20.20;99.90;;;;;;1043593;28;20052;-61
2022/08/08 03:18:51;;;;;;;3.72;2.45;;;20.20;99.90;;;;;;1038741;28;20037;-61
2022/08/08 03:19:35;;;;;;;4.43;2.67;;;20.20;99.90;;;;;;1043014;28;20020;-61
2022/08/08 03:20:06;;;;;;;2.78;2.35;;;20.20;99.90;;;;;;1042904;28;20025;-61
2022/08/08 03:20:44;;;;;;;4.17;2.80;;;20.20;99.90;;;;;;1043035;28;20045;-60
2022/08/08 03:21:14;;;;;;;4.68;2.70;;;20.20;99.90;;;;;;1042802;28;20765;-61
2022/08/08 03:21:44;;;;;;;3.23;2.80;;;20.20;99.90;;;;;;1043280;28;20816;-61
2022/08/08 03:22:15;;;;;;;4.17;2.67;;;20.20;99.90;;;;;;1043109;28;20747;-61
2022/08/08 03:22:53;;;;;;;3.90;2.70;;;20.20;99.90;;;;;;1043433;28;20413;-61
2022/08/08 03:23:23;;;;;;;3.28;2.95;;;20.20;99.90;;;;;;1043341;28;20762;-61
2022/08/08 03:23:54;;;;;;;3.57;2.80;;;20.20;99.90;;;;;;1043323;28;20051;-61
2022/08/08 03:24:24;;;;;;;5.53;3.00;;;20.20;99.90;;;;;;1042752;28;20456;-61
2022/08/08 03:24:55;;;;;;;4.03;3.10;;;20.20;99.90;;;;;;1043007;28;20032;-60
2022/08/08 03:25:27;;;;;;;4.03;2.90;;;20.20;99.90;;;;;;1042996;28;20017;-61
2022/08/08 03:25:58;;;;;;;7.55;2.97;;;20.20;99.90;;;;;;1042982;28;20444;-60
2022/08/08 03:26:31;;;;;;;3.87;2.67;;;20.20;99.90;;;;;;1043232;28;20486;-60
2022/08/08 03:27:19;;;;;;;3.72;3.08;;;20.20;99.90;;;;;;1039367;28;20025;-60
2022/08/08 03:28:01;;;;;;;2.58;2.30;;;20.20;99.90;;;;;;1039238;28;20393;-61
2022/08/08 03:28:47;;;;;;;4.95;3.28;;;20.20;99.90;;;;;;1039316;28;20021;-63
2022/08/08 03:29:28;;;;;;;5.20;3.30;;;20.20;99.90;;;;;;1039170;28;20020;-60
2022/08/08 03:30:11;;;;;;;3.85;3.00;;;20.20;99.90;;;;;;1039539;28;20025;-60
2022/08/08 03:30:45;;;;;;;4.05;2.92;;;20.20;99.90;;;;;;1043231;28;20831;-61
2022/08/08 03:33:18;;;;;;;3.65;2.83;;;20.20;99.90;;;;;;1039245;28;20079;-60
2022/08/08 03:33:50;;;;;;;3.72;2.85;;;20.20;99.90;;;;;;1042706;28;20498;-60
2022/08/08 03:34:20;;;;;;;5.65;2.85;;;20.10;99.90;;;;;;1043133;28;20009;-60
2022/08/08 03:34:51;;;;;;;4.83;3.23;;;20.10;99.90;;;;;;1042886;28;20818;-61
2022/08/08 03:35:23;;;;;;;3.17;2.40;;;20.10;99.90;;;;;;1043077;28;20020;-61
2022/08/08 03:35:54;;;;;;;3.40;2.40;;;20.10;99.90;;;;;;1040439;28;20021;-60
2022/08/08 03:36:25;;;;;;;3.03;2.73;;;20.20;99.90;;;;;;1039300;28;20021;-61
2022/08/08 03:36:56;;;;;;;2.88;2.33;;;20.10;99.90;;;;;;1040742;28;20077;-60
2022/08/08 03:37:26;;;;;;;3.17;2.40;;;20.10;99.90;;;;;;1043590;28;20036;-62
2022/08/08 03:38:00;;;;;;;2.70;2.50;;;20.10;99.90;;;;;;1043143;28;20467;-60
2022/08/08 03:38:30;;;;;;;4.93;2.70;;;20.10;99.90;;;;;;1042657;28;20021;-60
2022/08/08 03:39:01;;;;;;;2.97;2.40;;;20.10;99.90;;;;;;1034463;28;20014;-60
2022/08/08 03:39:35;;;;;;;3.27;2.67;;;20.10;99.90;;;;;;1034951;28;20041;-61
2022/08/08 03:40:06;;;;;;;3.35;2.75;;;20.10;99.90;;;;;;1035258;28;20644;-62
2022/08/08 03:40:37;;;;;;;3.22;2.47;;;20.10;99.90;;;;;;1042813;28;20079;-62
2022/08/08 03:41:08;;;;;;;3.10;2.40;;;20.10;99.90;;;;;;1043289;28;20017;-62
2022/08/08 03:41:39;;;;;;;4.30;2.80;;;20.10;99.90;;;;;;1043495;28;20538;-61
2022/08/08 03:42:17;;;;;;;3.58;2.42;;;20.10;99.90;;;;;;1043267;28;20017;-62
2022/08/08 03:42:48;;;;;;;4.95;2.90;;;20.10;99.90;;;;;;1043694;28;20737;-62
2022/08/08 03:43:19;;;;;;;3.28;2.83;;;20.10;99.90;;;;;;1042585;28;20066;-62
2022/08/08 03:43:56;;;;;;;3.73;2.60;;;20.10;99.90;;;;;;1042939;28;20022;-62
2022/08/08 03:44:33;;;;;;;3.80;2.65;;;20.10;99.90;;;;;;1042930;28;20017;-61
2022/08/08 03:45:16;;;;;;;3.47;2.40;;;20.10;99.90;;;;;;1043049;28;20021;-61
2022/08/08 03:45:47;;;;;;;2.85;2.50;;;20.10;99.90;;;;;;1043495;28;20017;-61
2022/08/08 03:46:18;;;;;;;3.17;2.87;;;20.10;99.90;;;;;;1042874;28;20076;-62
2022/08/08 03:46:49;;;;;;;3.87;2.90;;;20.10;99.90;;;;;;1043001;28;20040;-62
2022/08/08 03:47:21;;;;;;;3.83;2.60;;;20.10;99.90;;;;;;1042681;28;20017;-62
2022/08/08 03:48:04;;;;;;;4.55;2.63;;;20.00;99.90;;;;;;1042878;28;20040;-63
2022/08/08 03:48:35;;;;;;;4.07;2.67;;;20.10;99.90;;;;;;1042784;28;20021;-61
2022/08/08 03:49:06;;;;;;;4.17;3.27;;;20.00;99.90;;;;;;1042936;28;20020;-61
2022/08/08 03:49:37;;;;;;;4.55;2.90;;;20.10;99.90;;;;;;1042855;28;20028;-62
2022/08/08 03:50:16;;;;;;;3.40;2.47;;;20.00;99.90;;;;;;1042834;28;20490;-61
2022/08/08 03:50:48;;;;;;;4.45;3.03;;;20.10;99.90;;;;;;1043162;28;20032;-61
2022/08/08 03:51:19;;;;;;;4.60;3.10;;;20.00;99.90;;;;;;1043268;28;20044;-62
2022/08/08 03:51:54;;;;;;;3.17;2.77;;;20.00;99.90;;;;;;1043192;28;20021;-62
2022/08/08 03:52:25;;;;;;;4.30;2.95;;;20.00;99.90;;;;;;1043132;28;20028;-62
2022/08/08 03:52:56;;;;;;;4.60;2.43;;;20.00;99.90;;;;;;1043247;28;20044;-62
2022/08/08 03:53:34;;;;;;;3.03;2.70;;;20.00;99.90;;;;;;1038349;28;20496;-62
2022/08/08 03:54:04;;;;;;;4.85;2.80;;;20.00;99.90;;;;;;1038536;28;20022;-62
2022/08/08 03:54:35;;;;;;;3.20;2.90;;;20.10;99.90;;;;;;1038964;28;20026;-62
2022/08/08 03:55:11;;;;;;;3.27;2.63;;;20.00;99.90;;;;;;1038968;28;20446;-62
2022/08/08 03:55:44;;;;;;;6.15;3.05;;;20.00;99.90;;;;;;1036584;28;20030;-62
2022/08/08 03:56:16;;;;;;;5.00;2.83;;;20.00;99.90;;;;;;1038758;28;20473;-61
2022/08/08 03:56:47;;;;;;;4.95;2.95;;;20.00;99.90;;;;;;1036872;28;20028;-62
2022/08/08 03:57:17;;;;;;;3.47;2.60;;;20.00;99.90;;;;;;1035655;28;20021;-61
2022/08/08 03:57:53;;;;;;;3.33;2.90;;;20.00;99.90;;;;;;1040793;28;20076;-62
2022/08/08 03:58:24;;;;;;;2.95;2.53;;;20.00;99.90;;;;;;1043261;28;20104;-62
2022/08/08 03:58:55;;;;;;;3.10;2.78;;;20.00;99.90;;;;;;1042979;28;20025;-61
2022/08/08 03:59:29;;;;;;;3.93;2.90;;;20.00;99.90;;;;;;1043379;28;20017;-61
2022/08/08 04:00:07;;;;;;;3.67;3.25;;;20.00;99.90;;;;;;1042945;28;20510;-62
2022/08/08 04:00:37;;;;;;;3.10;2.60;;;20.00;99.90;;;;;;1039956;28;20539;-62
2022/08/08 04:01:08;;;;;;;4.07;2.60;;;20.00;99.90;;;;;;1042730;28;20025;-61
2022/08/08 04:01:40;;;;;;;3.60;2.70;;;20.00;99.90;;;;;;1043179;28;20024;-62
2022/08/08 04:02:15;;;;;;;4.53;3.13;;;20.00;99.90;;;;;;1038490;28;20669;-62
2022/08/08 04:03:05;;;;;;;4.10;3.10;;;20.00;99.90;;;;;;1039992;28;20443;-61
2022/08/08 04:03:36;;;;;;;5.20;3.00;;;19.90;99.90;;;;;;1042867;28;20021;-61
2022/08/08 04:04:07;;;;;;;3.90;3.50;;;20.00;99.90;;;;;;1042922;28;20025;-61
2022/08/08 04:04:38;;;;;;;3.45;2.88;;;20.00;99.90;;;;;;1043407;28;20019;-60
2022/08/08 04:05:09;;;;;;;3.42;3.13;;;20.00;99.90;;;;;;1042964;28;20029;-61
2022/08/08 04:05:40;;;;;;;3.15;2.70;;;20.00;99.90;;;;;;1043228;28;20017;-61
2022/08/08 04:06:10;;;;;;;3.40;2.90;;;20.00;99.90;;;;;;1043181;28;20869;-63
2022/08/08 04:06:55;;;;;;;3.37;2.77;;;19.90;99.90;;;;;;1043419;28;20017;-62
2022/08/08 04:07:33;;;;;;;3.33;3.03;;;19.90;99.90;;;;;;1043135;28;20021;-62
2022/08/08 04:08:05;;;;;;;3.63;2.60;;;20.00;99.90;;;;;;1043155;28;20338;-61
2022/08/08 04:08:37;;;;;;;3.35;2.97;;;20.00;99.90;;;;;;1043227;28;20028;-59
2022/08/08 04:09:08;;;;;;;3.85;2.63;;;19.90;99.90;;;;;;1043170;28;20017;-62
2022/08/08 04:09:38;;;;;;;3.60;2.93;;;19.90;99.90;;;;;;1043148;28;20048;-60